createdAt,value
2019-02-02T00:02:15.434Z,61.65
2019-02-02T00:05:06.836Z,61.74
2019-02-02T00:07:57.458Z,61.83
2019-02-02T00:10:47.253Z,61.75
2019-02-02T00:13:37.117Z,61.93
2019-02-02T00:16:27.215Z,61.96
2019-02-02T00:19:17.202Z,62.01
2019-02-02T00:22:08.397Z,62.04
2019-02-02T00:24:58.596Z,61.96
2019-02-02T00:27:48.777Z,61.94
2019-02-02T00:30:38.539Z,61.95
2019-02-02T00:33:30.022Z,61.92
2019-02-02T00:36:20.249Z,61.88
2019-02-02T00:39:11.714Z,62.02
2019-02-02T00:42:01.692Z,62.11
2019-02-02T00:44:51.669Z,62.10
2019-02-02T00:47:41.450Z,62.05
2019-02-02T00:50:31.015Z,62.07
2019-02-02T00:53:20.525Z,62.06
2019-02-02T00:56:10.691Z,61.99
2019-02-02T00:59:00.449Z,62.03
2019-02-02T01:01:50.292Z,62.09
2019-02-02T01:04:40.160Z,62.16
2019-02-02T01:07:30.425Z,62.08
2019-02-02T01:10:28.121Z,62.19
2019-02-02T01:13:20.427Z,62.13
2019-02-02T01:16:10.391Z,62.06
2019-02-02T01:19:00.521Z,62.20
2019-02-02T01:21:50.946Z,62.15
2019-02-02T01:24:49.196Z,62.22
2019-02-02T01:27:39.928Z,62.21
2019-02-02T01:30:30.115Z,62.29
2019-02-02T01:33:20.321Z,62.25
2019-02-02T01:36:10.163Z,62.31
2019-02-02T01:39:00.221Z,62.24
2019-02-02T01:41:50.523Z,62.26
2019-02-02T01:44:40.741Z,62.23
2019-02-02T01:47:30.800Z,62.23
2019-02-02T01:50:23.142Z,62.34
2019-02-02T01:53:13.112Z,62.34
2019-02-02T01:56:03.386Z,62.27
2019-02-02T01:58:52.943Z,62.39
2019-02-02T02:01:42.932Z,62.50
2019-02-02T02:04:33.030Z,62.54
2019-02-02T02:07:23.261Z,62.53
2019-02-02T02:10:14.873Z,62.58
2019-02-02T02:13:03.860Z,62.75
2019-02-02T02:15:53.926Z,62.74
2019-02-02T02:18:44.127Z,62.84
2019-02-02T02:21:36.424Z,62.88
2019-02-02T02:24:26.387Z,62.88
2019-02-02T02:27:16.225Z,63.01
2019-02-02T02:30:07.951Z,63.10
2019-02-02T02:32:58.385Z,63.16
2019-02-02T02:35:48.708Z,63.18
2019-02-02T02:38:39.317Z,63.17
2019-02-02T02:41:29.318Z,63.00
2019-02-02T02:44:19.071Z,63.11
2019-02-02T02:47:09.023Z,63.16
2019-02-02T02:49:59.574Z,63.09
2019-02-02T02:52:49.653Z,63.02
2019-02-02T02:55:39.590Z,62.95
2019-02-02T02:58:41.148Z,63.06
2019-02-02T03:01:21.375Z,63.11
2019-02-02T03:04:11.766Z,63.19
2019-02-02T03:07:01.510Z,63.22
2019-02-02T03:09:51.201Z,63.18
2019-02-02T03:12:41.198Z,63.15
2019-02-02T03:15:31.218Z,62.97
2019-02-02T03:18:21.126Z,62.94
2019-02-02T03:21:11.299Z,62.99
2019-02-02T03:24:00.818Z,63.15
2019-02-02T03:26:50.668Z,63.00
2019-02-02T03:29:40.851Z,63.09
2019-02-02T03:32:30.611Z,63.10
2019-02-02T03:35:22.578Z,63.05
2019-02-02T03:38:12.359Z,63.18
2019-02-02T03:41:02.336Z,63.26
2019-02-02T03:43:52.430Z,63.32
2019-02-02T03:46:42.420Z,63.38
2019-02-02T03:49:31.982Z,63.38
2019-02-02T03:52:22.100Z,63.35
2019-02-02T03:55:14.400Z,63.42
2019-02-02T03:58:04.606Z,63.37
2019-02-02T04:00:54.291Z,63.33
2019-02-02T04:03:44.255Z,63.32
2019-02-02T04:06:33.707Z,63.37
2019-02-02T04:09:23.448Z,63.36
2019-02-02T04:12:13.777Z,63.35
2019-02-02T04:15:03.843Z,63.35
2019-02-02T04:17:53.749Z,63.39
2019-02-02T04:20:43.565Z,63.39
2019-02-02T04:23:33.286Z,63.47
2019-02-02T04:26:22.723Z,63.56
2019-02-02T04:29:17.824Z,63.59
2019-02-02T04:32:04.079Z,63.58
2019-02-02T04:34:54.109Z,63.60
2019-02-02T04:37:44.480Z,63.61
2019-02-02T04:40:34.663Z,63.67
2019-02-02T04:43:24.485Z,63.63
2019-02-02T04:46:14.597Z,63.62
2019-02-02T04:49:04.634Z,63.64
2019-02-02T04:51:54.394Z,63.63
2019-02-02T04:54:43.876Z,63.61
2019-02-02T04:57:34.299Z,63.55
2019-02-02T05:00:26.173Z,63.62
2019-02-02T05:03:16.271Z,63.59
2019-02-02T05:06:06.269Z,63.58
2019-02-02T05:08:56.447Z,63.69
2019-02-02T05:11:46.379Z,63.65
2019-02-02T05:14:36.257Z,63.56
2019-02-02T05:17:26.015Z,63.51
2019-02-02T05:20:16.491Z,63.53
2019-02-02T05:23:06.716Z,63.68
2019-02-02T05:25:56.627Z,63.71
2019-02-02T05:28:46.675Z,63.79
2019-02-02T05:31:36.507Z,63.78
2019-02-02T05:34:27.573Z,63.72
2019-02-02T05:37:17.851Z,63.64
2019-02-02T05:40:10.504Z,63.62
2019-02-02T05:43:00.520Z,63.69
2019-02-02T05:45:50.617Z,63.69
2019-02-02T05:48:40.346Z,63.62
2019-02-02T05:51:30.566Z,63.59
2019-02-02T05:54:20.303Z,63.62
2019-02-02T05:57:10.418Z,63.68
2019-02-02T06:00:00.026Z,63.60
2019-02-02T06:02:49.604Z,63.61
2019-02-02T06:05:39.300Z,63.54
2019-02-02T06:08:29.507Z,63.59
2019-02-02T06:11:18.639Z,63.67
2019-02-02T06:14:08.431Z,63.71
2019-02-02T06:16:58.290Z,63.68
2019-02-02T06:19:48.240Z,63.73
2019-02-02T06:22:38.186Z,63.67
2019-02-02T06:25:28.044Z,63.64
2019-02-02T06:28:18.050Z,63.65
2019-02-02T06:31:07.932Z,63.74
2019-02-02T06:33:57.888Z,63.81
2019-02-02T06:36:47.829Z,63.76
2019-02-02T06:39:37.680Z,63.73
2019-02-02T06:42:29.719Z,63.81
2019-02-02T06:45:24.553Z,63.76
2019-02-02T06:48:14.919Z,63.82
2019-02-02T06:51:05.237Z,63.83
2019-02-02T06:53:55.173Z,63.94
2019-02-02T06:56:45.825Z,63.96
2019-02-02T06:59:35.943Z,63.90
2019-02-02T07:02:25.928Z,63.78
2019-02-02T07:05:15.948Z,63.82
2019-02-02T07:08:05.834Z,63.92
2019-02-02T07:10:55.417Z,63.87
2019-02-02T07:13:45.076Z,63.84
2019-02-02T07:16:35.053Z,63.88
2019-02-02T07:19:24.872Z,63.80
2019-02-02T07:22:14.946Z,63.83
2019-02-02T07:25:05.634Z,63.92
2019-02-02T07:27:55.809Z,63.93
2019-02-02T07:30:45.504Z,63.89
2019-02-02T07:33:36.411Z,63.92
2019-02-02T07:36:26.256Z,63.84
2019-02-02T07:39:16.191Z,63.93
2019-02-02T07:42:05.435Z,63.95
2019-02-02T07:44:55.107Z,63.95
2019-02-02T07:47:45.417Z,63.98
2019-02-02T07:50:38.484Z,64.03
2019-02-02T07:53:28.950Z,63.98
2019-02-02T07:56:19.038Z,63.93
2019-02-02T07:59:08.762Z,63.88
2019-02-02T08:01:58.741Z,63.88
2019-02-02T08:04:49.066Z,63.90
2019-02-02T08:07:39.646Z,63.93
2019-02-02T08:10:29.910Z,64.00
2019-02-02T08:13:20.027Z,64.01
2019-02-02T08:16:10.337Z,64.02
2019-02-02T08:19:00.622Z,64.07
2019-02-02T08:21:50.389Z,64.13
2019-02-02T08:24:40.602Z,64.04
2019-02-02T08:27:30.418Z,64.09
2019-02-02T08:30:23.501Z,64.10
2019-02-02T08:33:13.468Z,64.10
2019-02-02T08:36:04.165Z,64.02
2019-02-02T08:38:53.983Z,63.92
2019-02-02T08:41:44.184Z,63.82
2019-02-02T08:44:34.123Z,63.89
2019-02-02T08:47:23.921Z,63.89
2019-02-02T08:50:36.535Z,63.87
2019-02-02T08:53:26.534Z,63.89
2019-02-02T08:56:16.431Z,63.87
2019-02-02T08:59:06.625Z,63.90
2019-02-02T09:01:57.309Z,63.92
2019-02-02T09:04:49.813Z,63.93
2019-02-02T09:07:39.970Z,64.02
2019-02-02T09:10:31.463Z,64.04
2019-02-02T09:13:22.090Z,64.09
2019-02-02T09:16:12.250Z,64.09
2019-02-02T09:19:02.059Z,64.15
2019-02-02T09:21:51.886Z,64.05
2019-02-02T09:24:42.284Z,64.06
2019-02-02T09:27:32.076Z,64.11
2019-02-02T09:30:34.384Z,64.14
2019-02-02T09:33:25.185Z,64.16
2019-02-02T09:36:16.886Z,64.16
2019-02-02T09:39:08.325Z,64.13
2019-02-02T09:41:58.422Z,64.16
2019-02-02T09:44:48.517Z,64.20
2019-02-02T09:47:50.426Z,64.25
2019-02-02T09:50:41.898Z,64.30
2019-02-02T09:53:31.961Z,64.35
2019-02-02T09:56:21.933Z,64.30
2019-02-02T09:59:11.999Z,64.41
2019-02-02T10:02:01.704Z,64.47
2019-02-02T10:04:51.917Z,64.51
2019-02-02T10:07:42.108Z,64.60
2019-02-02T10:10:34.317Z,64.61
2019-02-02T10:13:24.267Z,64.62
2019-02-02T10:16:14.543Z,64.68
2019-02-02T10:19:04.339Z,64.67
2019-02-02T10:21:54.265Z,64.66
2019-02-02T10:24:43.989Z,64.59
2019-02-02T10:27:34.089Z,64.53
2019-02-02T10:30:33.449Z,64.49
2019-02-02T10:33:23.586Z,64.60
2019-02-02T10:36:13.717Z,64.66
2019-02-02T10:39:05.124Z,64.73
2019-02-02T10:41:56.272Z,64.76
2019-02-02T10:44:46.045Z,64.86
2019-02-02T10:47:35.926Z,64.94
2019-02-02T10:50:26.479Z,65.05
2019-02-02T10:53:16.601Z,65.03
2019-02-02T10:56:06.903Z,65.00
2019-02-02T10:58:57.079Z,64.92
2019-02-02T11:01:51.045Z,64.96
2019-02-02T11:04:38.419Z,64.95
2019-02-02T11:07:28.392Z,64.96
2019-02-02T11:10:24.308Z,64.92
2019-02-02T11:13:16.293Z,64.90
2019-02-02T11:16:04.823Z,65.00
2019-02-02T11:18:54.846Z,65.02
2019-02-02T11:21:44.490Z,64.98
2019-02-02T11:24:35.146Z,65.02
2019-02-02T11:27:25.317Z,65.07
2019-02-02T11:30:17.160Z,65.14
2019-02-02T11:33:07.372Z,65.08
2019-02-02T11:35:56.801Z,65.08
2019-02-02T11:38:46.939Z,65.02
2019-02-02T11:41:37.026Z,65.08
2019-02-02T11:44:27.156Z,65.19
2019-02-02T11:47:16.974Z,65.25
2019-02-02T11:50:08.381Z,65.21
2019-02-02T11:52:58.508Z,65.20
2019-02-02T11:55:48.668Z,65.15
2019-02-02T11:58:38.680Z,65.19
2019-02-02T12:01:28.666Z,65.23
2019-02-02T12:04:18.574Z,65.23
2019-02-02T12:07:08.255Z,65.34
2019-02-02T12:10:00.393Z,65.37
2019-02-02T12:12:50.316Z,65.37
2019-02-02T12:15:40.507Z,65.38
2019-02-02T12:18:30.398Z,65.41
2019-02-02T12:21:20.085Z,65.47
2019-02-02T12:24:15.855Z,65.53
2019-02-02T12:27:01.005Z,65.51
2019-02-02T12:29:51.299Z,65.50
2019-02-02T12:32:41.511Z,65.51
2019-02-02T12:35:32.166Z,65.56
2019-02-02T12:38:22.194Z,65.53
2019-02-02T12:41:12.756Z,65.55
2019-02-02T12:44:03.493Z,65.57
2019-02-02T12:46:53.196Z,65.62
2019-02-02T12:49:43.197Z,65.61
2019-02-02T12:52:33.131Z,65.65
2019-02-02T12:55:25.948Z,65.64
2019-02-02T12:58:14.957Z,65.61
2019-02-02T13:01:05.550Z,65.58
2019-02-02T13:04:02.363Z,65.57
2019-02-02T13:06:47.531Z,65.59
2019-02-02T13:09:37.707Z,65.57
2019-02-02T13:12:28.058Z,65.48
2019-02-02T13:15:18.474Z,65.49
2019-02-02T13:18:08.486Z,65.44
2019-02-02T13:20:58.755Z,65.44
2019-02-02T13:23:48.199Z,65.48
2019-02-02T13:26:38.260Z,65.44
2019-02-02T13:29:28.182Z,65.42
2019-02-02T13:32:18.447Z,65.38
2019-02-02T13:35:10.846Z,65.30
2019-02-02T13:38:00.457Z,65.35
2019-02-02T13:40:50.760Z,65.29
2019-02-02T13:43:41.019Z,65.24
2019-02-02T13:46:31.176Z,65.32
2019-02-02T13:49:21.793Z,65.33
2019-02-02T13:52:11.845Z,65.36
2019-02-02T13:55:01.995Z,65.37
2019-02-02T13:57:51.947Z,65.24
2019-02-02T14:00:42.342Z,65.23
2019-02-02T14:03:32.589Z,65.30
2019-02-02T14:06:22.681Z,65.27
2019-02-02T14:09:13.076Z,65.28
2019-02-02T14:12:02.618Z,65.24
2019-02-02T14:14:52.486Z,65.26
2019-02-02T14:17:42.574Z,65.35
2019-02-02T14:20:32.504Z,65.45
2019-02-02T14:23:22.593Z,65.50
2019-02-02T14:26:12.289Z,65.69
2019-02-02T14:29:02.154Z,65.73
2019-02-02T14:31:52.467Z,65.83
2019-02-02T14:34:42.948Z,65.86
2019-02-02T14:37:33.391Z,65.79
2019-02-02T14:40:23.315Z,65.75
2019-02-02T14:43:13.311Z,65.71
2019-02-02T14:46:03.219Z,65.78
2019-02-02T14:48:52.970Z,65.82
2019-02-02T14:51:42.876Z,65.86
2019-02-02T14:54:32.836Z,65.98
2019-02-02T14:57:24.198Z,66.04
2019-02-02T15:00:18.786Z,66.13
2019-02-02T15:03:08.858Z,66.19
2019-02-02T15:05:58.710Z,66.15
2019-02-02T15:08:48.793Z,66.18
2019-02-02T15:11:38.551Z,66.34
2019-02-02T15:14:28.481Z,66.31
2019-02-02T15:17:18.443Z,66.32
2019-02-02T15:20:14.732Z,66.38
2019-02-02T15:23:05.765Z,66.54
2019-02-02T15:25:55.820Z,66.68
2019-02-02T15:28:46.034Z,66.91
2019-02-02T15:31:36.133Z,66.88
2019-02-02T15:34:26.286Z,66.95
2019-02-02T15:37:16.489Z,67.00
2019-02-02T15:40:07.473Z,66.93
2019-02-02T15:42:57.537Z,67.01
2019-02-02T15:45:47.418Z,67.07
2019-02-02T15:48:37.494Z,67.09
2019-02-02T15:51:27.331Z,67.14
2019-02-02T15:54:17.172Z,67.18
2019-02-02T15:57:07.511Z,67.25
2019-02-02T15:59:57.468Z,67.25
2019-02-02T16:02:47.689Z,67.30
2019-02-02T16:05:38.566Z,67.24
2019-02-02T16:08:29.426Z,67.20
2019-02-02T16:11:19.179Z,67.22
2019-02-02T16:14:09.320Z,67.23
2019-02-02T16:16:59.423Z,67.15
2019-02-02T16:19:49.467Z,67.19
2019-02-02T16:22:39.352Z,67.20
2019-02-02T16:25:29.700Z,67.22
2019-02-02T16:28:19.885Z,67.26
2019-02-02T16:31:09.813Z,67.26
2019-02-02T16:34:02.129Z,67.18
2019-02-02T16:36:51.379Z,67.14
2019-02-02T16:39:41.345Z,67.23
2019-02-02T16:42:31.397Z,67.21
2019-02-02T16:45:28.071Z,67.21
2019-02-02T16:48:17.818Z,67.22
2019-02-02T16:51:09.734Z,67.21
2019-02-02T16:54:01.520Z,67.19
2019-02-02T16:56:55.318Z,67.15
2019-02-02T16:59:44.330Z,67.06
2019-02-02T17:02:34.258Z,67.09
2019-02-02T17:05:24.111Z,67.10
2019-02-02T17:08:57.569Z,67.04
2019-02-02T17:11:47.622Z,66.95
2019-02-02T17:14:37.957Z,66.90
2019-02-02T17:17:30.940Z,66.85
2019-02-02T17:20:44.822Z,66.87
2019-02-02T17:23:35.820Z,66.92
2019-02-02T17:26:25.690Z,66.92
2019-02-02T17:29:16.776Z,66.90
2019-02-02T17:32:10.771Z,66.91
2019-02-02T17:35:00.789Z,66.88
2019-02-02T17:37:52.108Z,66.81
2019-02-02T17:40:42.102Z,66.85
2019-02-02T17:43:32.292Z,66.88
2019-02-02T17:46:22.505Z,66.91
2019-02-02T17:49:12.539Z,66.91
2019-02-02T17:52:04.321Z,66.87
2019-02-02T17:54:53.917Z,66.90
2019-02-02T17:57:44.088Z,66.92
2019-02-02T18:00:46.721Z,66.90
2019-02-02T18:03:36.850Z,66.92
2019-02-02T18:06:26.629Z,66.87
2019-02-02T18:09:16.411Z,66.87
2019-02-02T18:12:06.573Z,66.90
2019-02-02T18:14:56.537Z,66.93
2019-02-02T18:17:46.527Z,67.00
2019-02-02T18:20:36.635Z,66.99
2019-02-02T18:23:27.377Z,67.00
2019-02-02T18:26:17.129Z,66.96
2019-02-02T18:29:07.250Z,66.96
2019-02-02T18:31:57.723Z,66.94
2019-02-02T18:34:51.191Z,66.93
2019-02-02T18:37:39.030Z,66.98
2019-02-02T18:40:46.412Z,66.89
2019-02-02T18:43:39.010Z,66.91
2019-02-02T18:46:29.162Z,66.88
2019-02-02T18:49:23.254Z,66.92
2019-02-02T18:52:13.418Z,66.86
2019-02-02T18:55:04.775Z,66.86
2019-02-02T18:57:54.553Z,66.89
2019-02-02T19:00:44.532Z,66.88
2019-02-02T19:03:34.668Z,66.93
2019-02-02T19:06:24.951Z,66.98
2019-02-02T19:09:14.869Z,66.98
2019-02-02T19:12:05.310Z,67.04
2019-02-02T19:14:55.511Z,67.08
2019-02-02T19:17:46.011Z,67.07
2019-02-02T19:20:38.432Z,67.07
2019-02-02T19:23:29.132Z,67.17
2019-02-02T19:26:19.169Z,67.17
2019-02-02T19:29:34.832Z,67.13
2019-02-02T19:32:18.115Z,67.10
2019-02-02T19:35:16.046Z,67.09
2019-02-02T19:38:00.594Z,67.11
2019-02-02T19:40:50.932Z,67.12
2019-02-02T19:43:41.187Z,67.07
2019-02-02T19:46:30.736Z,67.07
2019-02-02T19:49:20.996Z,67.03
2019-02-02T19:52:11.198Z,67.02
2019-02-02T19:55:01.445Z,67.02
2019-02-02T19:57:55.186Z,67.02
2019-02-02T20:00:46.220Z,66.98
2019-02-02T20:03:56.064Z,66.85
2019-02-02T20:06:47.806Z,66.80
2019-02-02T20:09:38.558Z,66.80
2019-02-02T20:12:29.021Z,66.82
2019-02-02T20:15:23.737Z,66.71
2019-02-02T20:18:13.846Z,66.75
2019-02-02T20:21:05.451Z,66.76
2019-02-02T20:23:56.746Z,66.75
2019-02-02T20:26:53.486Z,66.82
2019-02-02T20:29:43.588Z,66.86
2019-02-02T20:32:33.521Z,66.91
2019-02-02T20:35:24.824Z,66.93
2019-02-02T20:38:15.473Z,66.97
2019-02-02T20:41:06.498Z,67.01
2019-02-02T20:43:56.412Z,67.13
2019-02-02T20:46:46.606Z,67.14
2019-02-02T20:49:37.216Z,67.09
2019-02-02T20:52:28.611Z,67.06
2019-02-02T20:55:28.726Z,66.92
2019-02-02T20:58:19.301Z,66.94
2019-02-02T21:01:09.877Z,66.86
2019-02-02T21:04:00.367Z,66.79
2019-02-02T21:06:51.783Z,66.77
2019-02-02T21:09:42.418Z,66.77
2019-02-02T21:12:32.698Z,66.72
2019-02-02T21:15:23.945Z,66.69
2019-02-02T21:18:13.985Z,66.64
2019-02-02T21:21:05.494Z,66.63
2019-02-02T21:23:55.899Z,66.57
2019-02-02T21:26:46.498Z,66.61
2019-02-02T21:29:36.675Z,66.62
2019-02-02T21:32:27.254Z,66.55
2019-02-02T21:35:18.070Z,66.49
2019-02-02T21:38:08.675Z,65.93
2019-02-02T21:40:59.060Z,66.15
2019-02-02T21:43:49.558Z,66.22
2019-02-02T21:46:47.715Z,66.05
2019-02-02T21:49:38.900Z,66.08
2019-02-02T21:52:28.723Z,65.92
2019-02-02T21:55:20.373Z,65.91
2019-02-02T21:58:11.227Z,65.79
2019-02-02T22:01:00.418Z,65.67
2019-02-02T22:04:02.005Z,65.44
2019-02-02T22:07:10.951Z,65.34
2019-02-02T22:10:03.444Z,65.26
2019-02-02T22:13:02.684Z,65.32
2019-02-02T22:15:54.062Z,65.12
2019-02-02T22:18:44.866Z,65.23
2019-02-02T22:21:34.905Z,65.22
2019-02-02T22:24:28.430Z,65.30
2019-02-02T22:27:21.131Z,65.40
2019-02-02T22:30:21.456Z,65.51
2019-02-02T22:33:12.559Z,65.54
2019-02-02T22:36:02.478Z,65.48
2019-02-02T22:38:53.070Z,65.53
2019-02-02T22:46:01.606Z,65.49
2019-02-02T22:48:51.045Z,65.71
2019-02-02T22:51:50.483Z,65.80
2019-02-02T22:54:40.413Z,65.82
2019-02-02T22:57:29.652Z,65.89
2019-02-02T23:05:50.423Z,65.94
2019-02-02T23:09:58.708Z,66.01
2019-02-02T23:14:03.499Z,66.13
2019-02-02T23:16:53.826Z,66.09
2019-02-02T23:19:44.021Z,66.20
2019-02-02T23:22:34.074Z,66.20
2019-02-02T23:25:23.883Z,66.17
2019-02-02T23:28:13.254Z,66.12
2019-02-02T23:31:02.734Z,66.04
2019-02-02T23:33:52.540Z,66.04
2019-02-02T23:36:50.915Z,66.06
2019-02-02T23:39:34.204Z,66.02
2019-02-02T23:42:24.514Z,66.08
2019-02-02T23:45:14.705Z,66.08
2019-02-02T23:48:04.547Z,66.19
2019-02-02T23:50:54.628Z,66.18
2019-02-02T23:53:44.718Z,65.91
2019-02-02T23:56:34.189Z,66.00
2019-02-02T23:59:24.282Z,66.09
